Time;durP1;ratioP1;P1;durP2;ratioP2;P2;SDS_P1;SDS_P2;PMS_P1;PMS_P2;Temp;Humidity;BMP_temperature;BMP_pressure;BME280_temperature;BME280_humidity;BME280_pressure;Samples;Min_cycle;Max_cycle;Signal;HPM_P1;HPM_P2
2021/11/17 02:26:28;;;;;;;18.17;10.27;;;;;;;7.45;69.61;100708.31;5017071;28;20104;-80
2021/11/17 02:29:24;;;;;;;18.08;10.38;;;;;;;7.50;70.03;100705.50;5022795;28;20426;-80
2021/11/17 02:32:11;;;;;;;18.98;10.35;;;;;;;7.41;69.65;100702.53;5034898;28;20058;-80
2021/11/17 02:35:01;;;;;;;16.65;9.80;;;;;;;7.34;69.98;100698.41;5034307;28;20049;-80
2021/11/17 02:37:47;;;;;;;17.08;9.98;;;;;;;7.27;69.88;100690.44;5034700;28;20061;-80
2021/11/17 02:40:32;;;;;;;16.88;9.18;;;;;;;7.34;70.19;100679.84;5035095;28;20062;-80
2021/11/17 02:43:31;;;;;;;17.73;10.18;;;;;;;7.26;70.61;100675.72;5034625;28;20049;-80
2021/11/17 02:46:13;;;;;;;17.83;10.05;;;;;;;7.40;69.76;100675.09;5034318;28;20056;-80
2021/11/17 02:48:57;;;;;;;16.58;9.18;;;;;;;7.40;69.83;100661.25;5034584;28;20064;-80
2021/11/17 02:51:58;;;;;;;16.15;9.13;;;;;;;7.07;71.01;100666.44;5034674;28;20083;-80
2021/11/17 02:54:39;;;;;;;16.20;9.75;;;;;;;7.15;70.66;100656.72;5033674;28;20067;-80
2021/11/17 02:57:33;;;;;;;16.10;9.18;;;;;;;7.28;70.57;100656.03;5034622;28;20057;-80
2021/11/17 03:00:27;;;;;;;19.92;10.07;;;;;;;7.02;70.86;100645.16;5034885;28;20061;-80
2021/11/17 03:03:07;;;;;;;14.25;8.77;;;;;;;7.21;70.61;100645.28;5034690;28;20053;-80
2021/11/17 03:05:59;;;;;;;15.88;9.50;;;;;;;7.20;71.14;100642.81;5034579;28;20050;-80
2021/11/17 03:08:58;;;;;;;13.93;8.27;;;;;;;7.32;70.13;100646.88;5039255;28;20405;-80
2021/11/17 03:12:03;;;;;;;17.35;8.88;;;;;;;7.36;70.46;100640.75;5053784;28;20381;-80
2021/11/17 03:14:53;;;;;;;16.05;9.00;;;;;;;7.44;70.24;100646.50;5052545;28;20082;-80
2021/11/17 03:17:45;;;;;;;13.05;8.10;;;;;;;7.52;69.82;100640.34;5053941;28;20068;-80
2021/11/17 03:20:35;;;;;;;15.30;8.43;;;;;;;7.38;70.17;100642.13;5053953;28;20057;-80
2021/11/17 03:23:18;;;;;;;12.70;7.43;;;;;;;7.39;70.08;100640.16;5053495;28;20060;-80
2021/11/17 03:25:59;;;;;;;14.32;8.00;;;;;;;7.40;70.27;100636.31;5053580;28;20053;-80
2021/11/17 03:28:50;;;;;;;11.63;7.70;;;;;;;7.17;70.84;100638.69;5055511;28;20056;-79
2021/11/17 03:31:36;;;;;;;12.30;7.88;;;;;;;7.29;70.68;100641.09;5054280;28;20068;-80
2021/11/17 03:34:29;;;;;;;11.60;6.80;;;;;;;7.40;69.34;100636.31;5054216;28;20064;-80
2021/11/17 03:37:18;;;;;;;12.02;7.28;;;;;;;7.52;70.14;100637.56;5055588;28;20419;-80
2021/11/17 03:40:16;;;;;;;12.25;7.05;;;;;;;7.64;69.96;100628.91;5000031;28;20061;-80
2021/11/17 03:42:58;;;;;;;10.75;6.70;;;;;;;7.79;69.30;100630.69;5053301;28;20053;-80
2021/11/17 03:45:41;;;;;;;11.30;7.10;;;;;;;7.80;68.77;100634.28;5052358;28;20053;-80
2021/11/17 03:48:31;;;;;;;12.77;7.50;;;;;;;7.67;69.12;100636.63;5053490;28;20073;-80
2021/11/17 03:51:16;;;;;;;10.60;6.60;;;;;;;7.77;68.64;100640.41;5053364;28;20064;-80
2021/11/17 03:54:04;;;;;;;10.00;6.80;;;;;;;7.71;68.21;100642.41;5052939;28;20056;-80
2021/11/17 03:56:54;;;;;;;9.50;6.75;;;;;;;7.71;68.32;100651.56;5050976;28;20059;-80
2021/11/17 03:59:38;;;;;;;9.63;6.30;;;;;;;7.69;68.36;100655.75;5053078;28;20391;-81
2021/11/17 04:02:27;;;;;;;9.90;6.43;;;;;;;7.57;69.45;100656.09;5053208;28;20057;-80
2021/11/17 04:05:09;;;;;;;10.32;6.93;;;;;;;7.68;68.96;100665.97;5050873;28;20060;-80
2021/11/17 04:07:48;;;;;;;12.18;7.38;;;;;;;7.58;68.85;100668.00;5071320;28;20056;-80
2021/11/17 04:10:35;;;;;;;14.98;9.27;;;;;;;7.73;69.05;100665.97;5073428;28;20392;-80
2021/11/17 04:13:13;;;;;;;13.88;8.70;;;;;;;7.70;68.58;100679.56;5071460;28;20056;-80
2021/11/17 04:15:53;;;;;;;15.35;8.95;;;;;;;7.80;68.85;100668.38;5053780;28;20060;-80
2021/11/17 04:18:33;;;;;;;12.60;8.20;;;;;;;7.86;68.83;100677.50;5053997;28;20067;-80
2021/11/17 04:21:30;;;;;;;9.68;6.60;;;;;;;7.91;68.90;100678.25;5054219;28;20061;-80
2021/11/17 04:24:14;;;;;;;10.30;6.25;;;;;;;7.82;68.56;100677.25;5047725;28;20056;-80
2021/11/17 04:26:57;;;;;;;8.18;5.75;;;;;;;7.96;68.00;100682.94;5057651;28;20052;-80
2021/11/17 04:30:01;;;;;;;9.55;6.72;;;;;;;7.92;68.38;100679.09;5056854;28;20056;-80
2021/11/17 04:32:53;;;;;;;11.27;7.18;;;;;;;7.94;67.92;100687.97;5057350;28;20064;-80
2021/11/17 04:35:45;;;;;;;10.40;6.78;;;;;;;7.98;68.38;100689.03;5046579;28;20053;-81
2021/11/17 04:38:29;;;;;;;10.50;6.53;;;;;;;7.90;68.55;100701.59;5056550;28;20049;-81
2021/11/17 04:41:23;;;;;;;10.93;7.13;;;;;;;7.94;68.91;100712.94;5057931;28;20053;-81
2021/11/17 04:44:08;;;;;;;12.02;7.53;;;;;;;8.01;67.75;100707.03;5063179;28;20072;-81
2021/11/17 04:46:52;;;;;;;12.20;7.63;;;;;;;7.97;68.59;100706.78;5062144;28;20064;-81
2021/11/17 04:49:50;;;;;;;13.38;8.38;;;;;;;7.96;68.85;100709.84;5056878;28;20053;-81
2021/11/17 04:52:38;;;;;;;12.90;7.97;;;;;;;7.75;69.40;100693.41;5057184;28;20529;-81
2021/11/17 04:55:23;;;;;;;10.80;7.65;;;;;;;7.81;69.28;100699.72;5056808;28;20060;-81
2021/11/17 04:58:08;;;;;;;15.15;8.70;;;;;;;7.76;69.32;100702.53;5056808;28;20490;-81
2021/11/17 05:00:59;;;;;;;15.32;8.52;;;;;;;7.84;69.82;100699.16;5057248;28;20052;-81
2021/11/17 05:03:39;;;;;;;13.85;8.63;;;;;;;7.75;69.21;100698.09;5056504;28;20066;-81
2021/11/17 05:06:19;;;;;;;13.30;8.95;;;;;;;7.73;68.58;100704.78;5061910;28;20060;-81
2021/11/17 05:08:55;;;;;;;15.07;10.32;;;;;;;7.75;69.25;100704.50;5075787;28;20051;-81
2021/11/17 05:11:35;;;;;;;14.23;9.20;;;;;;;7.79;69.41;100707.50;5076780;28;20509;-81
2021/11/17 05:14:13;;;;;;;16.58;10.70;;;;;;;7.58;70.02;100709.59;5068761;28;20053;-81
2021/11/17 05:16:57;;;;;;;16.23;10.63;;;;;;;7.63;70.04;100707.63;5056313;28;20060;-81
2021/11/17 05:19:34;;;;;;;17.92;11.13;;;;;;;7.65;69.37;100694.31;5062451;28;20061;-81
2021/11/17 05:22:15;;;;;;;19.15;11.38;;;;;;;7.62;68.75;100691.28;5061004;28;20466;-81
2021/11/17 05:24:58;;;;;;;22.20;13.60;;;;;;;7.61;69.19;100709.03;5056949;28;20053;-81
2021/11/17 05:27:41;;;;;;;20.95;13.73;;;;;;;7.68;69.53;100715.06;5057269;28;20061;-81
2021/11/17 05:30:26;;;;;;;19.25;12.77;;;;;;;7.80;69.68;100723.84;5056555;28;20064;-81
2021/11/17 05:33:09;;;;;;;21.17;12.85;;;;;;;7.90;70.05;100728.50;5056227;28;20068;-80
2021/11/17 05:35:53;;;;;;;21.02;13.40;;;;;;;7.96;69.52;100721.78;5058719;28;20060;-80
2021/11/17 05:38:31;;;;;;;21.10;12.98;;;;;;;7.73;69.53;100717.81;5057242;28;20065;-80
2021/11/17 05:41:14;;;;;;;21.33;13.35;;;;;;;7.62;69.98;100727.31;5056835;28;20049;-80
2021/11/17 05:43:55;;;;;;;22.23;13.38;;;;;;;7.75;69.36;100720.28;5056217;28;20056;-80
2021/11/17 05:46:36;;;;;;;21.40;13.85;;;;;;;7.62;69.75;100724.53;5055920;28;20409;-80
2021/11/17 05:49:14;;;;;;;24.33;13.98;;;;;;;7.49;69.83;100710.22;5055887;28;20413;-80
2021/11/17 05:52:00;;;;;;;24.50;14.80;;;;;;;7.51;69.59;100704.38;5055896;28;20056;-80
2021/11/17 05:54:41;;;;;;;22.40;14.05;;;;;;;7.55;69.78;100711.00;5054909;28;20057;-80
2021/11/17 05:57:25;;;;;;;22.95;14.13;;;;;;;7.61;69.40;100707.09;5055546;28;20063;-80
2021/11/17 06:00:12;;;;;;;23.00;14.00;;;;;;;7.52;69.53;100701.34;5055890;28;20394;-80
2021/11/17 06:02:56;;;;;;;20.13;13.13;;;;;;;7.53;69.19;100697.44;5055959;28;20056;-81
2021/11/17 06:05:23;;;;;;;21.27;12.10;;;;;;;7.50;69.48;100697.19;5055657;28;20063;-80
2021/11/17 06:07:50;;;;;;;22.60;13.75;;;;;;;7.40;69.81;100703.63;5055560;28;20068;-80
2021/11/17 06:10:24;;;;;;;23.80;15.15;;;;;;;7.45;69.67;100702.75;5055113;28;20057;-80
2021/11/17 06:12:52;;;;;;;22.27;13.90;;;;;;;7.32;70.58;100699.50;5061526;28;20052;-80
2021/11/17 06:15:20;;;;;;;22.75;14.25;;;;;;;7.51;69.89;100701.63;5055205;28;20064;-80
2021/11/17 06:17:50;;;;;;;22.15;13.27;;;;;;;7.39;70.38;100695.59;5055517;28;20049;-81
2021/11/17 06:20:20;;;;;;;22.30;14.38;;;;;;;7.29;69.83;100691.78;5055653;28;20072;-80
2021/11/17 06:22:50;;;;;;;21.50;13.90;;;;;;;7.37;70.15;100681.19;5055980;28;20049;-80
2021/11/17 06:25:20;;;;;;;19.88;11.85;;;;;;;7.38;70.00;100700.31;5055206;28;20061;-80
2021/11/17 06:27:51;;;;;;;21.70;13.52;;;;;;;7.54;69.47;100706.59;5055526;28;20053;-80
2021/11/17 06:30:21;;;;;;;21.17;13.30;;;;;;;7.51;70.06;100688.56;5055294;28;20057;-80
2021/11/17 06:32:50;;;;;;;21.33;13.45;;;;;;;7.59;69.55;100689.91;5055418;28;20387;-80
2021/11/17 06:35:17;;;;;;;21.88;13.40;;;;;;;7.68;69.45;100676.25;5055025;28;20059;-80
2021/11/17 06:37:45;;;;;;;20.95;13.15;;;;;;;7.38;69.28;100667.06;5055941;28;20072;-80
2021/11/17 06:40:17;;;;;;;20.52;13.45;;;;;;;7.47;69.74;100665.31;5054507;28;20060;-80
2021/11/17 06:42:48;;;;;;;21.02;12.68;;;;;;;7.46;69.07;100647.06;5057745;28;20048;-81
2021/11/17 06:45:18;;;;;;;19.55;11.52;;;;;;;7.37;69.79;100646.03;5057547;28;20053;-80
2021/11/17 06:47:47;;;;;;;21.60;12.95;;;;;;;7.25;70.41;100646.38;5064148;28;20048;-81
2021/11/17 06:50:17;;;;;;;22.02;13.25;;;;;;;7.37;70.11;100636.88;5055938;28;20067;-80
2021/11/17 06:52:45;;;;;;;23.00;14.10;;;;;;;7.15;70.73;100642.84;5048347;28;20073;-80
2021/11/17 06:55:16;;;;;;;20.88;12.05;;;;;;;7.08;70.68;100641.22;5051388;28;20064;-80
2021/11/17 06:57:45;;;;;;;24.63;14.27;;;;;;;7.11;71.15;100650.91;5053245;28;20097;-80
2021/11/17 07:00:15;;;;;;;21.38;12.35;;;;;;;7.15;70.79;100657.53;5054540;28;20413;-80
2021/11/17 07:02:43;;;;;;;21.90;13.50;;;;;;;7.29;69.79;100677.94;5045340;28;20391;-80
2021/11/17 07:05:11;;;;;;;24.05;13.63;;;;;;;7.34;70.68;100665.16;5052146;28;20063;-82
2021/11/17 07:07:40;;;;;;;21.40;13.20;;;;;;;7.37;70.27;100670.13;5050341;28;20049;-80
2021/11/17 07:10:10;;;;;;;22.13;13.50;;;;;;;7.50;69.87;100675.84;5053979;28;20057;-80
2021/11/17 07:12:38;;;;;;;21.90;12.88;;;;;;;7.53;70.36;100688.28;5054253;28;20064;-80
2021/11/17 07:15:08;;;;;;;24.55;13.05;;;;;;;7.55;69.86;100688.00;5054056;28;20057;-80
2021/11/17 07:17:35;;;;;;;21.70;12.20;;;;;;;7.77;69.46;100695.84;5035727;28;20398;-81
2021/11/17 07:20:03;;;;;;;21.13;12.40;;;;;;;7.89;69.17;100696.31;5034195;28;20064;-81
2021/11/17 07:22:30;;;;;;;22.60;13.82;;;;;;;8.07;68.48;100698.38;5033938;28;20061;-81
2021/11/17 07:24:58;;;;;;;21.15;12.82;;;;;;;8.17;68.75;100682.72;5033806;28;20528;-80
2021/11/17 07:27:25;;;;;;;21.15;11.90;;;;;;;8.16;68.17;100687.47;5033728;28;20058;-80
2021/11/17 07:29:55;;;;;;;23.25;13.38;;;;;;;8.26;68.41;100700.41;5034076;28;20511;-80
2021/11/17 07:32:26;;;;;;;21.83;12.98;;;;;;;8.11;68.62;100704.16;5034563;28;20064;-80
2021/11/17 07:34:54;;;;;;;21.55;13.05;;;;;;;8.16;68.56;100706.88;5034100;28;20068;-80
2021/11/17 07:37:21;;;;;;;22.02;12.25;;;;;;;8.08;68.42;100713.91;5033892;28;20068;-80
2021/11/17 07:39:48;;;;;;;20.67;12.50;;;;;;;8.08;68.90;100719.47;5034614;28;20045;-80
2021/11/17 07:42:16;;;;;;;21.85;13.35;;;;;;;8.11;68.33;100727.19;5034319;28;20061;-80
2021/11/17 07:44:44;;;;;;;21.77;12.30;;;;;;;8.00;68.59;100738.66;5034267;28;20397;-80
2021/11/17 07:47:12;;;;;;;20.80;12.40;;;;;;;7.96;69.04;100724.56;5034337;28;20053;-81
2021/11/17 07:49:41;;;;;;;21.33;12.60;;;;;;;8.09;68.59;100726.66;5033269;28;20049;-80
2021/11/17 07:52:09;;;;;;;20.83;11.77;;;;;;;8.07;68.60;100714.19;5033571;28;20058;-80
2021/11/17 07:54:36;;;;;;;21.05;12.02;;;;;;;7.84;69.71;100716.59;5033755;28;20061;-80
2021/11/17 07:57:07;;;;;;;21.08;12.25;;;;;;;8.01;69.33;100712.59;5033494;28;20053;-80
2021/11/17 07:59:37;;;;;;;21.00;12.70;;;;;;;7.98;69.19;100711.22;5032223;28;20060;-80
2021/11/17 08:02:08;;;;;;;20.20;12.43;;;;;;;8.10;68.60;100700.53;5031351;28;20076;-79
2021/11/17 08:04:38;;;;;;;20.30;12.07;;;;;;;8.22;68.57;100711.25;5023562;28;20056;-82
2021/11/17 08:07:11;;;;;;;20.20;11.77;;;;;;;8.24;68.56;100708.19;5037201;28;20421;-84
2021/11/17 08:09:38;;;;;;;20.40;11.80;;;;;;;8.24;68.67;100691.56;5041937;28;20053;-87
2021/11/17 08:12:07;;;;;;;21.35;12.90;;;;;;;7.99;69.71;100707.31;5052307;28;20556;-87
2021/11/17 08:14:34;;;;;;;23.55;13.32;;;;;;;8.22;68.85;100708.50;5053880;28;20064;-87
2021/11/17 08:17:02;;;;;;;21.17;12.57;;;;;;;8.43;68.66;100708.31;5053883;28;20061;-87
2021/11/17 08:19:29;;;;;;;21.77;12.43;;;;;;;8.48;67.98;100714.66;5053754;28;20065;-87
2021/11/17 08:21:57;;;;;;;21.23;12.65;;;;;;;8.16;69.36;100714.38;5052204;28;20060;-87
2021/11/17 08:24:26;;;;;;;21.33;12.80;;;;;;;8.42;68.51;100710.28;5052269;28;20057;-89
2021/11/17 08:26:54;;;;;;;22.90;12.85;;;;;;;8.48;69.12;100711.03;5053635;28;20057;-89
2021/11/17 08:29:21;;;;;;;21.92;13.50;;;;;;;8.56;68.55;100717.88;5052279;28;20053;-89
2021/11/17 08:31:48;;;;;;;21.88;12.85;;;;;;;8.58;68.70;100722.00;5053774;28;20057;-88
2021/11/17 08:34:16;;;;;;;22.27;13.73;;;;;;;8.86;67.43;100711.97;5050809;28;20041;-88
2021/11/17 08:36:43;;;;;;;20.85;12.27;;;;;;;8.94;67.56;100710.47;5051293;28;20058;-88
2021/11/17 08:39:16;;;;;;;21.70;13.23;;;;;;;9.07;66.84;100717.25;5053697;28;20535;-88
2021/11/17 08:41:45;;;;;;;21.83;13.15;;;;;;;9.24;66.96;100725.94;5047322;28;20431;-86
2021/11/17 09:12:52;;;;;;;22.42;12.30;;;;;;;9.50;66.10;100731.13;5072140;23;20041;-57
2021/11/17 09:15:23;;;;;;;19.38;12.73;;;;;;;9.40;66.32;100736.81;5051056;28;20065;-58
2021/11/17 09:17:53;;;;;;;19.20;12.38;;;;;;;9.52;65.73;100728.84;5052384;28;20056;-58
2021/11/17 09:20:22;;;;;;;20.65;13.02;;;;;;;9.55;66.30;100728.25;5052503;28;20524;-56
2021/11/17 09:22:51;;;;;;;19.20;11.90;;;;;;;9.55;66.07;100734.66;5052090;28;20064;-57
2021/11/17 09:25:20;;;;;;;19.88;12.18;;;;;;;9.68;65.96;100721.09;5052267;28;20124;-56
2021/11/17 09:27:48;;;;;;;19.35;12.32;;;;;;;9.71;65.86;100721.31;5052464;28;20128;-55
2021/11/17 09:30:19;;;;;;;19.55;12.65;;;;;;;9.62;65.74;100733.44;5052326;28;20057;-56
2021/11/17 09:32:47;;;;;;;19.92;12.18;;;;;;;9.48;66.19;100725.84;5051084;28;20053;-55
2021/11/17 09:35:16;;;;;;;17.95;11.82;;;;;;;9.44;66.71;100735.09;5052848;28;20060;-57
2021/11/17 09:37:46;;;;;;;18.58;12.60;;;;;;;9.65;66.23;100730.06;5046131;28;20064;-55
2021/11/17 09:40:19;;;;;;;16.55;11.45;;;;;;;9.59;66.51;100734.03;5051288;28;20049;-57
2021/11/17 09:42:47;;;;;;;19.17;12.07;;;;;;;9.69;66.35;100729.13;5052263;28;20409;-58
2021/11/17 09:45:14;;;;;;;19.80;12.63;;;;;;;9.80;65.51;100728.97;5049526;28;20057;-56
2021/11/17 09:47:44;;;;;;;20.15;12.38;;;;;;;9.69;66.37;100729.13;5050258;28;20057;-57
2021/11/17 09:50:16;;;;;;;18.00;11.68;;;;;;;9.70;66.40;100725.25;5051738;28;20061;-55
2021/11/17 09:52:52;;;;;;;20.40;12.73;;;;;;;9.63;66.71;100738.69;5053071;28;20057;-57
2021/11/17 09:55:23;;;;;;;18.55;11.57;;;;;;;9.74;65.84;100725.44;5045904;28;20068;-53
2021/11/17 09:57:57;;;;;;;17.15;11.55;;;;;;;9.81;65.93;100727.88;5050566;28;20056;-55
2021/11/17 10:00:29;;;;;;;17.10;11.60;;;;;;;9.92;65.73;100729.34;5060259;28;20059;-54
2021/11/17 10:03:05;;;;;;;19.40;12.30;;;;;;;9.93;66.08;100728.19;5070315;28;20052;-55
2021/11/17 10:08:49;;;;;;;18.50;11.13;;;;;;;9.86;65.95;100722.22;5026303;28;20075;-56
2021/11/17 10:14:14;;;;;;;19.60;11.77;;;;;;;9.92;65.85;100715.44;4998992;28;20048;-54
2021/11/17 10:16:42;;;;;;;19.80;12.38;;;;;;;9.91;66.05;100716.53;5067569;28;20060;-56
2021/11/17 10:19:22;;;;;;;17.63;12.13;;;;;;;10.09;65.33;100724.03;5062970;28;20070;-55
2021/11/17 10:21:58;;;;;;;17.35;12.02;;;;;;;9.96;65.92;100730.38;5061727;28;20400;-54
2021/11/17 10:24:41;;;;;;;17.73;11.70;;;;;;;10.14;65.18;100729.53;5065933;28;20075;-55
2021/11/17 10:27:11;;;;;;;19.27;12.65;;;;;;;10.04;66.04;100735.25;5069960;28;20060;-56
2021/11/17 10:29:41;;;;;;;18.83;12.48;;;;;;;10.25;65.08;100740.47;5063454;28;20057;-56
2021/11/17 10:32:16;;;;;;;18.83;12.25;;;;;;;10.23;65.42;100731.59;5066718;28;20057;-55
2021/11/17 10:34:53;;;;;;;16.40;11.70;;;;;;;10.27;65.37;100741.00;5064674;28;20053;-57
2021/11/17 10:37:29;;;;;;;18.13;11.30;;;;;;;10.35;65.29;100740.31;5064339;28;20049;-55
2021/11/17 10:39:57;;;;;;;16.70;11.38;;;;;;;10.20;65.63;100749.72;5070078;28;20056;-57
2021/11/17 10:42:33;;;;;;;17.50;11.85;;;;;;;10.19;65.62;100747.25;5071908;28;20056;-56
2021/11/17 10:45:22;;;;;;;15.20;10.50;;;;;;;10.27;65.19;100754.91;5070424;28;20052;-56
2021/11/17 10:47:51;;;;;;;16.17;10.57;;;;;;;10.06;65.83;100748.88;5070054;28;20073;-55
2021/11/17 10:50:23;;;;;;;14.48;9.45;;;;;;;10.01;65.80;100737.81;5071087;28;20063;-55
2021/11/17 10:52:56;;;;;;;15.55;10.02;;;;;;;10.13;65.73;100735.38;5069948;28;20059;-57
2021/11/17 10:55:28;;;;;;;13.93;9.20;;;;;;;10.04;65.87;100738.03;5069607;28;20068;-55
2021/11/17 10:57:55;;;;;;;14.98;10.50;;;;;;;10.15;65.75;100742.28;5070626;28;20064;-57
2021/11/17 11:00:26;;;;;;;16.17;10.45;;;;;;;10.19;65.78;100734.16;5075672;28;20492;-56
2021/11/17 11:02:59;;;;;;;15.15;10.30;;;;;;;10.04;66.30;100728.88;5069607;28;20063;-57
2021/11/17 11:05:31;;;;;;;16.20;10.85;;;;;;;10.29;65.83;100734.03;5070173;28;20060;-56
2021/11/17 11:08:03;;;;;;;16.02;11.13;;;;;;;10.32;66.06;100735.34;5069592;28;20512;-55
2021/11/17 11:10:35;;;;;;;16.27;10.90;;;;;;;10.06;67.09;100741.34;5069184;28;20060;-55
2021/11/17 11:13:04;;;;;;;17.92;12.80;;;;;;;10.15;66.85;100725.59;5066954;28;20056;-55
2021/11/17 11:15:37;;;;;;;;;;;;;;;10.29;66.68;100724.78;5067475;28;20052;-55
2021/11/17 11:18:28;;;;;;;15.90;11.38;;;;;;;10.47;66.06;100712.78;5068608;28;20612;-56
2021/11/17 11:20:58;;;;;;;15.90;11.05;;;;;;;10.60;65.83;100725.06;5048653;28;20064;-57
2021/11/17 11:23:28;;;;;;;17.05;11.52;;;;;;;10.32;66.78;100722.25;5067073;28;20417;-56
2021/11/17 11:26:15;;;;;;;14.27;10.50;;;;;;;10.34;66.94;100727.53;5068306;28;20059;-56
2021/11/17 11:28:51;;;;;;;16.10;11.18;;;;;;;10.43;67.15;100747.94;5056575;28;20052;-55
2021/11/17 11:31:36;;;;;;;16.15;10.73;;;;;;;10.46;67.39;100725.06;5064771;28;20060;-54
2021/11/17 11:34:40;;;;;;;15.55;10.80;;;;;;;10.09;69.07;100735.16;5064290;28;20497;-55
2021/11/17 11:37:13;;;;;;;17.15;10.95;;;;;;;9.94;69.79;100733.47;5065823;28;20061;-56
2021/11/17 11:39:47;;;;;;;16.63;11.13;;;;;;;10.08;69.01;100732.66;5066220;28;20053;-54
2021/11/17 11:42:32;;;;;;;14.35;8.60;;;;;;;10.21;68.55;100739.44;5069193;28;20416;-56
2021/11/17 11:45:22;;;;;;;16.40;11.30;;;;;;;10.02;69.11;100737.53;5069075;28;20055;-56
2021/11/17 11:47:55;;;;;;;18.48;12.20;;;;;;;10.01;69.67;100735.84;5069338;28;20056;-57
2021/11/17 11:50:48;;;;;;;19.40;11.57;;;;;;;10.23;69.03;100737.19;5068166;28;20056;-58
2021/11/17 11:53:18;;;;;;;18.75;12.05;;;;;;;10.14;69.24;100740.66;5068344;28;20052;-57
2021/11/17 11:56:20;;;;;;;20.77;12.95;;;;;;;10.01;69.94;100740.59;5066869;28;20068;-56
2021/11/17 11:58:48;;;;;;;17.50;11.13;;;;;;;9.72;70.78;100742.47;5067027;28;20432;-56
2021/11/17 12:01:22;;;;;;;19.15;12.32;;;;;;;9.87;70.72;100740.53;5059501;28;20051;-56
2021/11/17 12:03:56;;;;;;;20.25;12.27;;;;;;;10.13;69.53;100741.78;5069576;28;20543;-54
2021/11/17 12:06:29;;;;;;;23.27;13.35;;;;;;;10.08;70.23;100738.25;5064304;28;20497;-55
2021/11/17 12:09:02;;;;;;;22.65;13.43;;;;;;;10.28;69.38;100740.66;5068840;28;20052;-56
2021/11/17 12:11:31;;;;;;;19.58;12.88;;;;;;;10.45;68.79;100737.31;5067434;28;20060;-56
2021/11/17 12:14:04;;;;;;;20.92;13.07;;;;;;;10.16;69.48;100732.81;5066585;28;20067;-56
2021/11/17 12:16:35;;;;;;;20.33;12.93;;;;;;;10.19;69.72;100731.38;5069606;28;20064;-57
2021/11/17 12:19:07;;;;;;;21.48;13.43;;;;;;;10.26;69.65;100734.59;5064239;28;20152;-56
2021/11/17 12:21:52;;;;;;;25.10;15.10;;;;;;;9.93;71.12;100740.19;5064545;28;20057;-54
2021/11/17 12:24:27;;;;;;;21.88;12.95;;;;;;;10.14;70.29;100740.66;5061952;28;20057;-57
2021/11/17 12:27:07;;;;;;;22.80;12.18;;;;;;;10.13;70.69;100747.34;5060026;28;20057;-56
2021/11/17 12:29:45;;;;;;;31.77;14.40;;;;;;;9.77;74.49;100741.53;5058460;28;20064;-54
2021/11/17 12:32:17;;;;;;;33.13;18.48;;;;;;;9.94;75.29;100752.13;5063588;28;20758;-54
2021/11/17 12:34:55;;;;;;;35.30;17.25;;;;;;;10.04;75.15;100746.38;5061884;28;20374;-56
2021/11/17 12:37:26;;;;;;;39.92;19.63;;;;;;;10.02;75.41;100747.84;5060630;28;20064;-56
2021/11/17 12:39:56;;;;;;;39.75;19.88;;;;;;;9.81;76.01;100758.47;5066966;28;20064;-54
2021/11/17 12:42:30;;;;;;;48.58;22.23;;;;;;;9.98;76.10;100755.94;5069254;28;20056;-56
2021/11/17 12:44:59;;;;;;;51.78;23.75;;;;;;;9.88;76.66;100764.47;5066192;28;20406;-54
2021/11/17 12:47:32;;;;;;;47.30;21.73;;;;;;;9.93;76.28;100765.22;5066764;28;20051;-54
2021/11/17 12:50:12;;;;;;;50.83;22.08;;;;;;;10.03;76.18;100777.31;5070248;28;20069;-55
2021/11/17 12:52:42;;;;;;;48.78;22.48;;;;;;;10.07;75.63;100781.94;5069449;28;20064;-55
2021/11/17 12:55:17;;;;;;;52.58;22.55;;;;;;;10.10;75.66;100786.94;5073023;28;20067;-55
2021/11/17 12:57:51;;;;;;;63.95;25.73;;;;;;;10.24;75.72;100805.63;5071594;28;20056;-55
2021/11/17 13:00:50;;;;;;;50.78;23.15;;;;;;;10.12;75.92;100795.81;5070409;28;20068;-57
2021/11/17 13:03:56;;;;;;;62.67;26.65;;;;;;;10.10;76.38;100795.28;5071368;28;20060;-53
2021/11/17 13:06:27;;;;;;;59.22;23.20;;;;;;;10.29;75.58;100805.53;5065523;28;20064;-56
2021/11/17 13:09:14;;;;;;;60.20;24.98;;;;;;;10.39;75.61;100813.75;5057674;28;20055;-56
2021/11/17 13:11:50;;;;;;;63.40;24.33;;;;;;;10.44;75.55;100810.88;5068448;28;20055;-57
2021/11/17 13:14:23;;;;;;;64.32;24.38;;;;;;;10.38;76.08;100808.50;5064661;28;20057;-58
2021/11/17 13:16:52;;;;;;;69.28;25.25;;;;;;;10.45;75.99;100809.72;5069658;28;20061;-58
2021/11/17 13:19:22;;;;;;;59.87;24.63;;;;;;;10.11;76.32;100813.63;5068288;28;20059;-55
2021/11/17 13:21:56;;;;;;;67.10;27.33;;;;;;;10.47;75.95;100813.03;5070927;28;20059;-56
2021/11/17 13:24:38;;;;;;;59.17;26.50;;;;;;;10.57;75.80;100814.84;5071352;28;20060;-57
2021/11/17 13:27:38;;;;;;;53.35;22.92;;;;;;;10.30;76.04;100810.00;5070203;28;20053;-55
2021/11/17 13:30:23;;;;;;;51.72;22.35;;;;;;;10.17;76.56;100817.16;5067966;28;20603;-55
2021/11/17 13:32:53;;;;;;;55.38;23.63;;;;;;;10.20;76.30;100810.97;5071409;28;20497;-55
2021/11/17 13:35:28;;;;;;;55.80;23.92;;;;;;;10.24;76.92;100811.19;5071143;28;20056;-55
2021/11/17 13:38:15;;;;;;;63.00;24.48;;;;;;;10.20;76.91;100808.19;5070722;28;20409;-55
2021/11/17 13:40:45;;;;;;;54.42;22.08;;;;;;;10.21;76.41;100807.06;5070306;28;20052;-55
2021/11/17 13:43:14;;;;;;;51.75;22.90;;;;;;;10.11;77.45;100810.00;5063866;28;20049;-55
2021/11/17 13:45:44;;;;;;;49.78;22.30;;;;;;;10.22;76.55;100810.66;5068218;28;20056;-57
2021/11/17 13:48:14;;;;;;;42.78;19.73;;;;;;;10.27;76.23;100810.59;5063900;28;20062;-55
2021/11/17 13:50:43;;;;;;;36.90;18.00;;;;;;;10.21;76.15;100811.81;5067569;28;20056;-57
2021/11/17 13:53:14;;;;;;;31.20;15.77;;;;;;;10.30;75.53;100799.69;5070053;28;20049;-56
2021/11/17 13:55:44;;;;;;;36.83;17.50;;;;;;;10.29;75.55;100808.31;5069352;28;20048;-56
2021/11/17 13:58:11;;;;;;;;;;;;;;;9.89;76.13;100805.91;5065642;28;20373;-57
2021/11/17 14:00:41;;;;;;;23.38;14.50;;;;;;;9.72;77.50;100812.00;5070611;28;20270;-56
2021/11/17 14:03:09;;;;;;;29.25;14.70;;;;;;;10.04;76.42;100799.28;5061173;28;20060;-55
2021/11/17 14:05:40;;;;;;;29.98;15.82;;;;;;;9.92;76.97;100810.84;5067345;28;20053;-56
2021/11/17 14:08:08;;;;;;;32.00;16.95;;;;;;;10.16;75.86;100794.06;5069083;28;20057;-55
2021/11/17 14:10:37;;;;;;;32.65;17.40;;;;;;;9.84;77.27;100797.63;5068396;28;20388;-56
2021/11/17 14:13:06;;;;;;;31.30;16.60;;;;;;;9.98;76.92;100797.69;5069000;28;20056;-56
2021/11/17 14:15:34;;;;;;;27.00;14.50;;;;;;;10.15;75.78;100797.16;5069977;28;20048;-57
2021/11/17 14:18:02;;;;;;;23.95;14.55;;;;;;;10.28;75.83;100799.13;5060518;28;20520;-57
2021/11/17 14:20:30;;;;;;;25.30;13.32;;;;;;;10.27;75.58;100797.50;5068024;28;20075;-57
2021/11/17 14:22:57;;;;;;;25.20;14.18;;;;;;;10.24;76.11;100802.84;5066857;28;20063;-56
2021/11/17 14:25:25;;;;;;;24.30;13.65;;;;;;;9.96;76.37;100817.47;5066528;28;20057;-56
2021/11/17 14:27:59;;;;;;;26.10;13.73;;;;;;;10.13;76.82;100811.34;5068238;28;20055;-55
2021/11/17 14:30:29;;;;;;;21.15;12.75;;;;;;;10.15;76.31;100813.84;5070972;28;20053;-56
2021/11/17 14:32:57;;;;;;;22.45;13.07;;;;;;;10.33;75.20;100812.16;5064994;28;20059;-56
2021/11/17 14:35:28;;;;;;;22.48;12.85;;;;;;;10.02;75.63;100814.63;5060470;28;20060;-54
2021/11/17 14:37:56;;;;;;;21.65;12.68;;;;;;;9.99;76.51;100812.44;5066526;28;20059;-55
2021/11/17 14:40:24;;;;;;;23.13;13.30;;;;;;;10.23;75.89;100817.91;5065544;28;20060;-55
2021/11/17 14:42:54;;;;;;;25.20;13.10;;;;;;;10.41;75.07;100816.22;5061597;28;20401;-55
2021/11/17 14:45:26;;;;;;;20.92;12.65;;;;;;;10.35;75.18;100823.84;5065889;28;20060;-56
2021/11/17 14:47:53;;;;;;;21.98;12.75;;;;;;;10.44;75.09;100826.78;5064904;28;20056;-56
2021/11/17 14:50:21;;;;;;;22.63;12.43;;;;;;;10.45;74.99;100829.22;5062126;28;20049;-56
2021/11/17 14:52:50;;;;;;;21.58;12.73;;;;;;;10.59;74.66;100834.03;5068391;28;20049;-54
2021/11/17 14:55:20;;;;;;;22.20;13.95;;;;;;;10.67;74.75;100847.25;5055148;28;20060;-56
2021/11/17 14:57:48;;;;;;;23.30;13.65;;;;;;;10.67;74.59;100841.69;5066926;28;20057;-53